sensor_id;sensor_type;location;lat;lon;timestamp;pressure;altitude;pressure_sealevel;temperature;humidity
59190;BME280;50749;51.636;4.948;2023-09-19T00:00:22;100828.69;;;20.50;60.22
59190;BME280;50749;51.636;4.948;2023-09-19T00:03:12;100837.41;;;20.48;60.07
59190;BME280;50749;51.636;4.948;2023-09-19T00:05:43;100830.25;;;20.47;59.78
59190;BME280;50749;51.636;4.948;2023-09-19T00:08:17;100825.88;;;20.46;60.00
59190;BME280;50749;51.636;4.948;2023-09-19T00:10:43;100845.28;;;20.42;59.68
59190;BME280;50749;51.636;4.948;2023-09-19T00:13:10;100849.22;;;20.41;59.99
59190;BME280;50749;51.636;4.948;2023-09-19T00:15:47;100855.56;;;20.42;59.51
59190;BME280;50749;51.636;4.948;2023-09-19T00:18:18;100859.53;;;20.41;59.97
59190;BME280;50749;51.636;4.948;2023-09-19T00:20:47;100862.69;;;20.39;59.87
59190;BME280;50749;51.636;4.948;2023-09-19T00:23:15;100856.28;;;20.39;59.47
59190;BME280;50749;51.636;4.948;2023-09-19T00:25:41;100869.03;;;20.40;59.58
59190;BME280;50749;51.636;4.948;2023-09-19T00:28:07;100867.41;;;20.39;59.63
59190;BME280;50749;51.636;4.948;2023-09-19T00:30:35;100871.00;;;20.39;59.87
59190;BME280;50749;51.636;4.948;2023-09-19T00:33:04;100872.16;;;20.38;59.58
59190;BME280;50749;51.636;4.948;2023-09-19T00:35:32;100866.19;;;20.36;59.69
59190;BME280;50749;51.636;4.948;2023-09-19T00:37:59;100869.75;;;20.37;59.67
59190;BME280;50749;51.636;4.948;2023-09-19T00:40:26;100873.72;;;20.36;59.97
59190;BME280;50749;51.636;4.948;2023-09-19T00:42:51;100873.66;;;20.32;59.66
59190;BME280;50749;51.636;4.948;2023-09-19T00:45:18;100877.63;;;20.31;59.15
59190;BME280;50749;51.636;4.948;2023-09-19T00:47:48;100874.84;;;20.31;59.52
59190;BME280;50749;51.636;4.948;2023-09-19T00:50:21;100884.34;;;20.30;59.13
59190;BME280;50749;51.636;4.948;2023-09-19T00:52:53;100887.47;;;20.29;59.23
59190;BME280;50749;51.636;4.948;2023-09-19T00:55:22;100891.09;;;20.29;59.29
59190;BME280;50749;51.636;4.948;2023-09-19T00:57:50;100896.19;;;20.27;59.60
59190;BME280;50749;51.636;4.948;2023-09-19T01:00:17;100895.34;;;20.23;58.81
59190;BME280;50749;51.636;4.948;2023-09-19T01:02:45;100897.31;;;20.22;58.65
59190;BME280;50749;51.636;4.948;2023-09-19T01:05:14;100898.13;;;20.23;59.02
59190;BME280;50749;51.636;4.948;2023-09-19T01:07:39;100908.44;;;20.22;58.98
59190;BME280;50749;51.636;4.948;2023-09-19T01:10:15;100909.22;;;20.23;58.98
59190;BME280;50749;51.636;4.948;2023-09-19T01:13:09;100912.00;;;20.23;58.84
59190;BME280;50749;51.636;4.948;2023-09-19T01:16:03;100904.41;;;20.20;58.46
59190;BME280;50749;51.636;4.948;2023-09-19T01:21:28;100913.47;;;20.17;58.50
59190;BME280;50749;51.636;4.948;2023-09-19T01:26:38;100925.75;;;20.16;58.15
59190;BME280;50749;51.636;4.948;2023-09-19T01:31:42;100924.50;;;20.13;58.22
59190;BME280;50749;51.636;4.948;2023-09-19T01:34:08;100919.34;;;20.12;58.45
59190;BME280;50749;51.636;4.948;2023-09-19T01:36:36;100925.31;;;20.14;57.89
59190;BME280;50749;51.636;4.948;2023-09-19T01:39:10;100923.31;;;20.11;57.74
59190;BME280;50749;51.636;4.948;2023-09-19T01:41:57;100922.47;;;20.10;58.31
59190;BME280;50749;51.636;4.948;2023-09-19T01:44:35;100926.06;;;20.11;57.95
59190;BME280;50749;51.636;4.948;2023-09-19T01:47:09;100925.63;;;20.09;57.78
59190;BME280;50749;51.636;4.948;2023-09-19T01:49:55;100926.44;;;20.09;58.16
59190;BME280;50749;51.636;4.948;2023-09-19T01:52:27;100922.06;;;20.08;58.24
59190;BME280;50749;51.636;4.948;2023-09-19T01:55:02;100927.25;;;20.10;58.05
59190;BME280;50749;51.636;4.948;2023-09-19T01:57:58;100917.28;;;20.09;58.09
59190;BME280;50749;51.636;4.948;2023-09-19T02:00:29;100920.06;;;20.09;57.95
59190;BME280;50749;51.636;4.948;2023-09-19T02:02:56;100919.28;;;20.08;58.10
59190;BME280;50749;51.636;4.948;2023-09-19T02:05:25;100919.28;;;20.08;57.70
59190;BME280;50749;51.636;4.948;2023-09-19T02:07:53;100918.50;;;20.08;57.93
59190;BME280;50749;51.636;4.948;2023-09-19T02:10:20;100917.28;;;20.09;57.89
59190;BME280;50749;51.636;4.948;2023-09-19T02:12:47;100921.69;;;20.10;57.60
59190;BME280;50749;51.636;4.948;2023-09-19T02:15:15;100923.66;;;20.09;57.77
59190;BME280;50749;51.636;4.948;2023-09-19T02:17:42;100924.03;;;20.08;57.47
59190;BME280;50749;51.636;4.948;2023-09-19T02:20:10;100924.41;;;20.06;57.51
59190;BME280;50749;51.636;4.948;2023-09-19T02:22:43;100931.53;;;20.07;57.35
59190;BME280;50749;51.636;4.948;2023-09-19T02:25:10;100927.19;;;20.06;57.72
59190;BME280;50749;51.636;4.948;2023-09-19T02:27:36;100924.03;;;20.08;57.71
59190;BME280;50749;51.636;4.948;2023-09-19T02:30:03;100931.53;;;20.07;57.33
59190;BME280;50749;51.636;4.948;2023-09-19T02:32:30;100932.72;;;20.06;57.58
59190;BME280;50749;51.636;4.948;2023-09-19T02:34:57;100936.72;;;20.09;57.74
59190;BME280;50749;51.636;4.948;2023-09-19T02:37:24;100932.00;;;20.09;57.35
59190;BME280;50749;51.636;4.948;2023-09-19T02:39:50;100939.88;;;20.07;57.41
59190;BME280;50749;51.636;4.948;2023-09-19T02:42:18;100929.53;;;20.04;57.11
59190;BME280;50749;51.636;4.948;2023-09-19T02:44:43;100935.56;;;20.10;57.24
59190;BME280;50749;51.636;4.948;2023-09-19T02:47:12;100931.63;;;20.11;57.36
59190;BME280;50749;51.636;4.948;2023-09-19T02:49:40;100921.69;;;20.10;57.48
59190;BME280;50749;51.636;4.948;2023-09-19T02:52:07;100926.44;;;20.09;57.04
59190;BME280;50749;51.636;4.948;2023-09-19T02:54:35;100939.50;;;20.09;57.18
59190;BME280;50749;51.636;4.948;2023-09-19T02:57:01;100932.72;;;20.06;56.80
59190;BME280;50749;51.636;4.948;2023-09-19T02:59:28;100942.59;;;20.03;56.64
59190;BME280;50749;51.636;4.948;2023-09-19T03:01:56;100938.66;;;20.04;57.10
59190;BME280;50749;51.636;4.948;2023-09-19T03:04:23;100936.66;;;20.05;56.92
59190;BME280;50749;51.636;4.948;2023-09-19T03:06:48;100935.88;;;20.04;56.66
59190;BME280;50749;51.636;4.948;2023-09-19T03:09:18;100948.59;;;20.06;57.07
59190;BME280;50749;51.636;4.948;2023-09-19T03:11:45;100940.63;;;20.04;56.72
59190;BME280;50749;51.636;4.948;2023-09-19T03:14:13;100944.63;;;20.07;56.72
59190;BME280;50749;51.636;4.948;2023-09-19T03:16:40;100950.97;;;20.07;56.85
59190;BME280;50749;51.636;4.948;2023-09-19T03:19:08;100947.41;;;20.07;56.91
59190;BME280;50749;51.636;4.948;2023-09-19T03:21:37;100942.28;;;20.09;56.55
59190;BME280;50749;51.636;4.948;2023-09-19T03:24:04;100936.72;;;20.09;57.07
59190;BME280;50749;51.636;4.948;2023-09-19T03:26:30;100929.59;;;20.08;56.32
59190;BME280;50749;51.636;4.948;2023-09-19T03:28:56;100931.16;;;20.09;56.50
59190;BME280;50749;51.636;4.948;2023-09-19T03:31:22;100939.50;;;20.09;56.52
59190;BME280;50749;51.636;4.948;2023-09-19T03:33:47;100933.94;;;20.09;56.40
59190;BME280;50749;51.636;4.948;2023-09-19T03:36:15;100938.34;;;20.10;57.06
59190;BME280;50749;51.636;4.948;2023-09-19T03:38:42;100927.25;;;20.10;56.94
59190;BME280;50749;51.636;4.948;2023-09-19T03:41:08;100930.00;;;20.10;56.69
59190;BME280;50749;51.636;4.948;2023-09-19T03:43:35;100932.00;;;20.09;56.49
59190;BME280;50749;51.636;4.948;2023-09-19T03:46:02;100932.00;;;20.09;56.13
59190;BME280;50749;51.636;4.948;2023-09-19T03:48:30;100933.53;;;20.07;56.09
59190;BME280;50749;51.636;4.948;2023-09-19T03:50:56;100932.38;;;20.08;56.21
59190;BME280;50749;51.636;4.948;2023-09-19T03:53:22;100930.31;;;20.04;56.46
59190;BME280;50749;51.636;4.948;2023-09-19T03:55:48;100926.38;;;20.06;56.80
59190;BME280;50749;51.636;4.948;2023-09-19T03:58:14;100933.53;;;20.07;56.42
59190;BME280;50749;51.636;4.948;2023-09-19T04:00:40;100929.97;;;20.06;56.55
59190;BME280;50749;51.636;4.948;2023-09-19T04:03:05;100930.31;;;20.04;56.25
59190;BME280;50749;51.636;4.948;2023-09-19T04:05:33;100927.13;;;20.02;56.34
59190;BME280;50749;51.636;4.948;2023-09-19T04:07:59;100929.91;;;20.02;56.83
59190;BME280;50749;51.636;4.948;2023-09-19T04:10:25;100929.44;;;20.00;56.70
59190;BME280;50749;51.636;4.948;2023-09-19T04:12:51;100948.50;;;20.02;56.34
59190;BME280;50749;51.636;4.948;2023-09-19T04:15:21;100947.72;;;20.01;56.65
59190;BME280;50749;51.636;4.948;2023-09-19T04:17:49;100948.50;;;20.02;56.43
59190;BME280;50749;51.636;4.948;2023-09-19T04:20:19;100957.19;;;20.00;56.87
59190;BME280;50749;51.636;4.948;2023-09-19T04:22:45;100958.81;;;20.01;56.81
59190;BME280;50749;51.636;4.948;2023-09-19T04:25:12;100962.75;;;20.00;55.84
59190;BME280;50749;51.636;4.948;2023-09-19T04:27:38;100974.66;;;20.01;56.36
59190;BME280;50749;51.636;4.948;2023-09-19T04:30:06;100973.06;;;20.00;56.87
59190;BME280;50749;51.636;4.948;2023-09-19T04:32:35;100975.41;;;19.98;56.35
59190;BME280;50749;51.636;4.948;2023-09-19T04:35:09;100984.09;;;19.96;56.36
59190;BME280;50749;51.636;4.948;2023-09-19T04:37:41;100994.75;;;19.94;56.40
59190;BME280;50749;51.636;4.948;2023-09-19T04:40:08;100986.44;;;19.94;56.29
59190;BME280;50749;51.636;4.948;2023-09-19T04:42:39;100997.53;;;19.94;56.63
59190;BME280;50749;51.636;4.948;2023-09-19T04:45:06;101004.66;;;19.95;56.80
59190;BME280;50749;51.636;4.948;2023-09-19T04:47:38;101009.44;;;19.95;56.94
59190;BME280;50749;51.636;4.948;2023-09-19T04:50:09;100997.97;;;19.96;57.05
59190;BME280;50749;51.636;4.948;2023-09-19T04:52:45;100993.19;;;19.97;58.23
59190;BME280;50749;51.636;4.948;2023-09-19T04:55:14;100994.44;;;19.99;59.05
59190;BME280;50749;51.636;4.948;2023-09-19T04:57:47;100992.84;;;19.98;59.55
59190;BME280;50749;51.636;4.948;2023-09-19T05:00:18;100993.25;;;20.00;59.39
59190;BME280;50749;51.636;4.948;2023-09-19T05:02:45;100992.09;;;20.01;59.90
59190;BME280;50749;51.636;4.948;2023-09-19T05:05:13;100987.72;;;20.00;59.77
59190;BME280;50749;51.636;4.948;2023-09-19T05:07:45;101001.59;;;20.00;60.25
59190;BME280;50749;51.636;4.948;2023-09-19T05:10:12;100993.72;;;20.02;59.21
59190;BME280;50749;51.636;4.948;2023-09-19T05:12:38;100991.38;;;20.04;59.29
59190;BME280;50749;51.636;4.948;2023-09-19T05:15:05;100989.03;;;20.07;59.25
59190;BME280;50749;51.636;4.948;2023-09-19T05:17:32;100991.81;;;20.07;59.13
59190;BME280;50749;51.636;4.948;2023-09-19T05:19:58;100999.28;;;20.02;59.45
59190;BME280;50749;51.636;4.948;2023-09-19T05:22:30;100989.63;;;19.96;59.16
59190;BME280;50749;51.636;4.948;2023-09-19T05:24:58;100991.56;;;19.92;59.47
59190;BME280;50749;51.636;4.948;2023-09-19T05:27:26;101006.59;;;19.91;59.88
59190;BME280;50749;51.636;4.948;2023-09-19T05:29:52;101003.03;;;19.91;59.88
59190;BME280;50749;51.636;4.948;2023-09-19T05:32:20;101006.59;;;19.91;60.11
59190;BME280;50749;51.636;4.948;2023-09-19T05:34:47;101006.59;;;19.91;59.96
59190;BME280;50749;51.636;4.948;2023-09-19T05:37:13;100994.69;;;19.91;60.48
59190;BME280;50749;51.636;4.948;2023-09-19T05:39:43;100990.31;;;19.90;60.52
59190;BME280;50749;51.636;4.948;2023-09-19T05:42:09;100993.50;;;19.92;60.60
59190;BME280;50749;51.636;4.948;2023-09-19T05:44:35;101005.44;;;19.92;60.60
59190;BME280;50749;51.636;4.948;2023-09-19T05:47:02;101001.09;;;19.95;60.69
59190;BME280;50749;51.636;4.948;2023-09-19T05:49:28;101000.72;;;19.96;60.13
59190;BME280;50749;51.636;4.948;2023-09-19T05:51:54;100999.94;;;19.96;60.35
59190;BME280;50749;51.636;4.948;2023-09-19T05:54:24;100994.41;;;19.96;60.65
59190;BME280;50749;51.636;4.948;2023-09-19T05:56:49;101007.44;;;19.95;60.32
59190;BME280;50749;51.636;4.948;2023-09-19T05:59:19;101013.00;;;19.95;60.46
59190;BME280;50749;51.636;4.948;2023-09-19T06:01:44;101002.66;;;19.92;60.40
59190;BME280;50749;51.636;4.948;2023-09-19T06:04:14;101003.44;;;19.93;60.23
59190;BME280;50749;51.636;4.948;2023-09-19T06:06:43;101006.22;;;19.93;59.58
59190;BME280;50749;51.636;4.948;2023-09-19T06:09:10;101011.41;;;19.94;59.79
59190;BME280;50749;51.636;4.948;2023-09-19T06:11:35;101016.59;;;19.96;59.83
59190;BME280;50749;51.636;4.948;2023-09-19T06:14:02;101014.59;;;19.96;60.36
59190;BME280;50749;51.636;4.948;2023-09-19T06:16:29;101015.78;;;19.95;60.54
59190;BME280;50749;51.636;4.948;2023-09-19T06:18:55;101026.88;;;19.95;60.13
59190;BME280;50749;51.636;4.948;2023-09-19T06:21:22;101029.63;;;19.95;59.14
59190;BME280;50749;51.636;4.948;2023-09-19T06:23:48;101028.47;;;19.96;58.93
59190;BME280;50749;51.636;4.948;2023-09-19T06:26:14;101032.41;;;19.95;58.74
59190;BME280;50749;51.636;4.948;2023-09-19T06:28:40;101026.88;;;19.95;58.67
59190;BME280;50749;51.636;4.948;2023-09-19T06:31:09;101039.94;;;19.95;58.93
59190;BME280;50749;51.636;4.948;2023-09-19T06:33:36;101032.41;;;19.95;59.38
59190;BME280;50749;51.636;4.948;2023-09-19T06:36:06;101041.56;;;19.96;59.53
59190;BME280;50749;51.636;4.948;2023-09-19T06:38:33;101038.44;;;19.97;59.67
59190;BME280;50749;51.636;4.948;2023-09-19T06:41:02;101036.44;;;19.98;59.27
59190;BME280;50749;51.636;4.948;2023-09-19T06:43:31;101040.00;;;19.98;59.35
59190;BME280;50749;51.636;4.948;2023-09-19T06:46:00;101039.66;;;20.00;59.48
59190;BME280;50749;51.636;4.948;2023-09-19T06:48:26;101031.31;;;20.00;59.34
59190;BME280;50749;51.636;4.948;2023-09-19T06:50:53;101028.19;;;20.01;59.66
59190;BME280;50749;51.636;4.948;2023-09-19T06:53:21;101022.63;;;20.01;59.76
59190;BME280;50749;51.636;4.948;2023-09-19T06:55:52;101025.41;;;20.01;59.63
59190;BME280;50749;51.636;4.948;2023-09-19T06:58:20;101027.81;;;20.03;59.75
59190;BME280;50749;51.636;4.948;2023-09-19T07:00:45;101038.13;;;20.02;59.36
59190;BME280;50749;51.636;4.948;2023-09-19T07:03:13;101032.22;;;20.04;59.54
59190;BME280;50749;51.636;4.948;2023-09-19T07:05:40;101036.56;;;20.05;59.73
59190;BME280;50749;51.636;4.948;2023-09-19T07:08:07;101040.97;;;20.06;59.80
59190;BME280;50749;51.636;4.948;2023-09-19T07:10:34;101046.16;;;20.08;59.57
59190;BME280;50749;51.636;4.948;2023-09-19T07:15:29;101030.28;;;20.08;59.71
59190;BME280;50749;51.636;4.948;2023-09-19T07:17:59;101038.25;;;20.10;60.19
59190;BME280;50749;51.636;4.948;2023-09-19T07:20:26;101034.31;;;20.11;59.75
59190;BME280;50749;51.636;4.948;2023-09-19T07:22:53;101035.53;;;20.13;59.96
59190;BME280;50749;51.636;4.948;2023-09-19T07:25:21;101041.88;;;20.14;59.98
59190;BME280;50749;51.636;4.948;2023-09-19T07:27:48;101040.72;;;20.15;59.95
59190;BME280;50749;51.636;4.948;2023-09-19T07:30:14;101046.28;;;20.15;59.84
59190;BME280;50749;51.636;4.948;2023-09-19T07:32:42;101056.22;;;20.16;59.87
59190;BME280;50749;51.636;4.948;2023-09-19T07:35:08;101047.88;;;20.16;60.09
59190;BME280;50749;51.636;4.948;2023-09-19T07:37:35;101039.19;;;20.17;60.22
59190;BME280;50749;51.636;4.948;2023-09-19T07:40:05;101053.88;;;20.18;59.89
59190;BME280;50749;51.636;4.948;2023-09-19T07:42:36;101057.78;;;20.17;59.45
59190;BME280;50749;51.636;4.948;2023-09-19T07:45:10;101042.34;;;20.16;59.19
59190;BME280;50749;51.636;4.948;2023-09-19T07:47:43;101044.66;;;20.14;58.30
59190;BME280;50749;51.636;4.948;2023-09-19T07:50:09;101035.09;;;20.11;58.86
59190;BME280;50749;51.636;4.948;2023-09-19T07:52:35;101038.25;;;20.10;58.52
59190;BME280;50749;51.636;4.948;2023-09-19T07:55:03;101043.38;;;20.08;58.10
59190;BME280;50749;51.636;4.948;2023-09-19T07:57:33;101058.41;;;20.07;58.27
59190;BME280;50749;51.636;4.948;2023-09-19T07:59:59;101059.59;;;20.06;57.90
59190;BME280;50749;51.636;4.948;2023-09-19T08:02:25;101052.78;;;20.03;57.75
59190;BME280;50749;51.636;4.948;2023-09-19T08:04:52;101052.00;;;20.02;58.43
59190;BME280;50749;51.636;4.948;2023-09-19T08:07:18;101046.44;;;20.02;57.83
59190;BME280;50749;51.636;4.948;2023-09-19T08:09:44;101054.03;;;20.06;58.72
59190;BME280;50749;51.636;4.948;2023-09-19T08:12:14;101048.75;;;20.00;57.89
59190;BME280;50749;51.636;4.948;2023-09-19T08:14:40;101048.75;;;20.00;57.82
59190;BME280;50749;51.636;4.948;2023-09-19T08:17:09;101057.47;;;19.99;58.07
59190;BME280;50749;51.636;4.948;2023-09-19T08:19:35;101067.41;;;20.00;57.83
59190;BME280;50749;51.636;4.948;2023-09-19T08:22:02;101054.31;;;20.00;58.10
59190;BME280;50749;51.636;4.948;2023-09-19T08:24:29;101054.72;;;19.99;57.93
59190;BME280;50749;51.636;4.948;2023-09-19T08:26:56;101066.22;;;20.01;57.77
59190;BME280;50749;51.636;4.948;2023-09-19T08:29:23;101058.72;;;20.01;57.29
59190;BME280;50749;51.636;4.948;2023-09-19T08:31:54;101051.53;;;20.00;57.89
59190;BME280;50749;51.636;4.948;2023-09-19T08:34:22;101050.75;;;20.00;57.35
59190;BME280;50749;51.636;4.948;2023-09-19T08:36:55;101044.41;;;19.99;57.86
59190;BME280;50749;51.636;4.948;2023-09-19T08:39:25;101046.00;;;20.00;57.90
59190;BME280;50749;51.636;4.948;2023-09-19T08:42:01;101050.38;;;20.01;57.53
59190;BME280;50749;51.636;4.948;2023-09-19T08:44:28;101051.19;;;20.02;57.68
59190;BME280;50749;51.636;4.948;2023-09-19T08:47:08;101052.78;;;20.03;58.08
59190;BME280;50749;51.636;4.948;2023-09-19T08:49:53;101048.03;;;20.03;58.37
59190;BME280;50749;51.636;4.948;2023-09-19T08:52:32;101050.38;;;20.01;57.52
59190;BME280;50749;51.636;4.948;2023-09-19T08:55:02;101058.72;;;20.01;57.75
59190;BME280;50749;51.636;4.948;2023-09-19T08:57:36;101058.72;;;20.01;57.36
59190;BME280;50749;51.636;4.948;2023-09-19T09:00:08;101053.94;;;20.02;57.57
59190;BME280;50749;51.636;4.948;2023-09-19T09:02:40;101048.41;;;20.02;57.61
59190;BME280;50749;51.636;4.948;2023-09-19T09:05:10;101055.56;;;20.03;57.02
59190;BME280;50749;51.636;4.948;2023-09-19T09:07:38;101048.41;;;20.02;57.73
59190;BME280;50749;51.636;4.948;2023-09-19T09:10:04;101047.25;;;20.03;57.46
59190;BME280;50749;51.636;4.948;2023-09-19T09:12:35;101035.78;;;20.04;57.51
59190;BME280;50749;51.636;4.948;2023-09-19T09:15:03;101037.41;;;20.06;57.48
59190;BME280;50749;51.636;4.948;2023-09-19T09:17:30;101023.13;;;20.07;57.47
59190;BME280;50749;51.636;4.948;2023-09-19T09:19:56;101024.72;;;20.08;57.73
59190;BME280;50749;51.636;4.948;2023-09-19T09:22:23;101027.16;;;20.10;57.51
59190;BME280;50749;51.636;4.948;2023-09-19T09:24:52;101024.81;;;20.12;57.37
59190;BME280;50749;51.636;4.948;2023-09-19T09:27:20;101030.34;;;20.12;57.53
59190;BME280;50749;51.636;4.948;2023-09-19T09:29:50;101033.91;;;20.12;57.09
59190;BME280;50749;51.636;4.948;2023-09-19T09:32:27;101034.75;;;20.13;57.47
59190;BME280;50749;51.636;4.948;2023-09-19T09:34:57;101028.81;;;20.14;56.97
59190;BME280;50749;51.636;4.948;2023-09-19T09:37:25;101034.00;;;20.16;57.55
59190;BME280;50749;51.636;4.948;2023-09-19T09:39:59;101029.25;;;20.16;57.28
59190;BME280;50749;51.636;4.948;2023-09-19T09:42:45;101032.81;;;20.17;57.34
59190;BME280;50749;51.636;4.948;2023-09-19T09:45:18;101036.84;;;20.19;56.96
59190;BME280;50749;51.636;4.948;2023-09-19T09:48:00;101024.91;;;20.19;57.09
59190;BME280;50749;51.636;4.948;2023-09-19T09:50:33;101024.91;;;20.19;57.10
59190;BME280;50749;51.636;4.948;2023-09-19T09:53:21;101026.16;;;20.21;56.86
59190;BME280;50749;51.636;4.948;2023-09-19T09:58:29;101033.34;;;20.22;57.25
59190;BME280;50749;51.636;4.948;2023-09-19T10:00:59;101040.09;;;20.25;57.48
59190;BME280;50749;51.636;4.948;2023-09-19T10:03:32;101036.16;;;20.26;56.79
59190;BME280;50749;51.636;4.948;2023-09-19T10:06:00;101038.56;;;20.28;56.71
59190;BME280;50749;51.636;4.948;2023-09-19T10:08:37;101033.81;;;20.28;56.71
59190;BME280;50749;51.636;4.948;2023-09-19T10:11:15;101024.34;;;20.29;56.30
59190;BME280;50749;51.636;4.948;2023-09-19T10:13:42;101033.09;;;20.31;56.38
59190;BME280;50749;51.636;4.948;2023-09-19T10:16:12;101020.00;;;20.32;56.99
59190;BME280;50749;51.636;4.948;2023-09-19T10:18:41;101014.50;;;20.35;56.51
59190;BME280;50749;51.636;4.948;2023-09-19T10:21:10;101018.47;;;20.34;57.19
59190;BME280;50749;51.636;4.948;2023-09-19T10:23:38;101008.94;;;20.35;56.72
59190;BME280;50749;51.636;4.948;2023-09-19T10:26:08;101012.56;;;20.36;56.88
59190;BME280;50749;51.636;4.948;2023-09-19T10:28:36;101012.16;;;20.37;56.84
59190;BME280;50749;51.636;4.948;2023-09-19T10:31:05;101003.81;;;20.37;57.36
59190;BME280;50749;51.636;4.948;2023-09-19T10:33:36;101015.38;;;20.39;56.67
59190;BME280;50749;51.636;4.948;2023-09-19T10:36:04;101011.41;;;20.40;57.12
59190;BME280;50749;51.636;4.948;2023-09-19T10:38:33;101009.50;;;20.45;56.21
59190;BME280;50749;51.636;4.948;2023-09-19T10:41:01;101000.75;;;20.42;55.77
59190;BME280;50749;51.636;4.948;2023-09-19T10:43:32;100998.41;;;20.45;55.98
59190;BME280;50749;51.636;4.948;2023-09-19T10:46:03;100987.31;;;20.45;56.06
59190;BME280;50749;51.636;4.948;2023-09-19T10:48:31;100990.09;;;20.45;56.01
59190;BME280;50749;51.636;4.948;2023-09-19T10:51:10;100987.72;;;20.47;55.81
59190;BME280;50749;51.636;4.948;2023-09-19T10:56:22;100978.22;;;20.48;54.89
59190;BME280;50749;51.636;4.948;2023-09-19T10:58:49;100986.56;;;20.48;55.59
59190;BME280;50749;51.636;4.948;2023-09-19T11:01:15;100986.56;;;20.48;55.02
59190;BME280;50749;51.636;4.948;2023-09-19T11:03:44;100977.41;;;20.47;54.64
59190;BME280;50749;51.636;4.948;2023-09-19T11:06:17;100980.25;;;20.51;54.81
59190;BME280;50749;51.636;4.948;2023-09-19T11:08:59;100983.38;;;20.49;53.80
59190;BME280;50749;51.636;4.948;2023-09-19T11:11:45;100960.81;;;20.51;53.31
59190;BME280;50749;51.636;4.948;2023-09-19T11:14:28;100978.66;;;20.50;53.90
59190;BME280;50749;51.636;4.948;2023-09-19T11:30:52;100932.66;;;20.52;53.67
59190;BME280;50749;51.636;4.948;2023-09-19T11:33:27;100929.09;;;20.52;54.33
59190;BME280;50749;51.636;4.948;2023-09-19T11:36:10;100939.03;;;20.53;54.04
59190;BME280;50749;51.636;4.948;2023-09-19T11:46:33;100917.25;;;20.55;54.11
59190;BME280;50749;51.636;4.948;2023-09-19T11:49:09;100942.59;;;20.53;54.27
59190;BME280;50749;51.636;4.948;2023-09-19T11:51:43;100926.72;;;20.54;54.26
59190;BME280;50749;51.636;4.948;2023-09-19T11:54:14;100917.25;;;20.55;54.42
59190;BME280;50749;51.636;4.948;2023-09-19T11:56:45;100909.69;;;20.55;54.12
59190;BME280;50749;51.636;4.948;2023-09-19T11:59:19;100935.47;;;20.56;54.19
59190;BME280;50749;51.636;4.948;2023-09-19T12:01:51;100927.16;;;20.56;54.05
59190;BME280;50749;51.636;4.948;2023-09-19T12:07:08;100953.75;;;20.57;54.35
59190;BME280;50749;51.636;4.948;2023-09-19T12:09:42;100950.19;;;20.56;53.98
59190;BME280;50749;51.636;4.948;2023-09-19T12:12:25;100935.47;;;20.56;54.13
59190;BME280;50749;51.636;4.948;2023-09-19T12:14:56;100931.91;;;20.55;53.80
59190;BME280;50749;51.636;4.948;2023-09-19T12:17:36;100932.72;;;20.56;54.19
59190;BME280;50749;51.636;4.948;2023-09-19T12:20:02;100937.09;;;20.57;54.35
59190;BME280;50749;51.636;4.948;2023-09-19T12:22:44;100939.88;;;20.57;54.16
59190;BME280;50749;51.636;4.948;2023-09-19T12:25:12;100935.94;;;20.58;54.70
59190;BME280;50749;51.636;4.948;2023-09-19T12:27:49;100928.78;;;20.57;54.68
59190;BME280;50749;51.636;4.948;2023-09-19T12:30:18;100922.06;;;20.58;54.56
59190;BME280;50749;51.636;4.948;2023-09-19T12:32:46;100924.81;;;20.58;54.29
59190;BME280;50749;51.636;4.948;2023-09-19T12:35:32;100925.25;;;20.60;54.44
59190;BME280;50749;51.636;4.948;2023-09-19T12:38:01;100917.28;;;20.58;54.23
59190;BME280;50749;51.636;4.948;2023-09-19T12:40:29;100922.47;;;20.60;54.31
59190;BME280;50749;51.636;4.948;2023-09-19T12:42:59;100917.28;;;20.58;54.48
59190;BME280;50749;51.636;4.948;2023-09-19T12:45:30;100923.63;;;20.59;54.53
59190;BME280;50749;51.636;4.948;2023-09-19T12:48:21;100927.22;;;20.59;54.45
59190;BME280;50749;51.636;4.948;2023-09-19T12:53:43;100943.06;;;20.59;54.55
59190;BME280;50749;51.636;4.948;2023-09-19T12:56:14;100940.75;;;20.61;54.92
59190;BME280;50749;51.636;4.948;2023-09-19T12:58:57;100932.03;;;20.63;54.60
59190;BME280;50749;51.636;4.948;2023-09-19T13:01:28;100935.66;;;20.63;54.48
59190;BME280;50749;51.636;4.948;2023-09-19T13:04:30;100942.00;;;20.64;54.31
59190;BME280;50749;51.636;4.948;2023-09-19T13:07:00;100941.53;;;20.62;54.47
59190;BME280;50749;51.636;4.948;2023-09-19T13:09:32;100935.97;;;20.62;54.79
59190;BME280;50749;51.636;4.948;2023-09-19T13:12:00;100938.41;;;20.63;54.71
59190;BME280;50749;51.636;4.948;2023-09-19T13:14:29;100949.53;;;20.63;54.20
59190;BME280;50749;51.636;4.948;2023-09-19T13:17:23;100940.00;;;20.64;54.36
59190;BME280;50749;51.636;4.948;2023-09-19T13:19:50;100955.50;;;20.65;54.69
59190;BME280;50749;51.636;4.948;2023-09-19T13:25:08;100942.78;;;20.64;54.83
59190;BME280;50749;51.636;4.948;2023-09-19T13:27:41;100942.41;;;20.66;54.85
59190;BME280;50749;51.636;4.948;2023-09-19T13:30:09;100936.06;;;20.65;54.68
59190;BME280;50749;51.636;4.948;2023-09-19T13:32:35;100931.31;;;20.66;54.62
59190;BME280;50749;51.636;4.948;2023-09-19T13:35:01;100951.56;;;20.66;54.66
59190;BME280;50749;51.636;4.948;2023-09-19T13:37:28;100937.69;;;20.66;54.78
59190;BME280;50749;51.636;4.948;2023-09-19T13:39:54;100933.72;;;20.67;54.95
59190;BME280;50749;51.636;4.948;2023-09-19T13:42:20;100928.94;;;20.68;54.42
59190;BME280;50749;51.636;4.948;2023-09-19T13:44:47;100939.25;;;20.67;54.54
59190;BME280;50749;51.636;4.948;2023-09-19T13:47:14;100930.56;;;20.69;54.61
59190;BME280;50749;51.636;4.948;2023-09-19T13:49:42;100935.75;;;20.70;54.68